Time;durP1;ratioP1;P1;durP2;ratioP2;P2;SDS_P1;SDS_P2;PMS_P1;PMS_P2;Temp;Humidity;BMP_temperature;BMP_pressure;BME280_temperature;BME280_humidity;BME280_pressure;Samples;Min_cycle;Max_cycle;Signal;HPM_P1;HPM_P2
2022/09/13 00:00:38;;;;;;;15.10;12.47;;;;;;;12.43;100.00;99667.69;1714874;82;20925;-38
2022/09/13 00:03:05;;;;;;;14.00;12.40;;;;;;;12.45;100.00;99669.77;1735796;82;20933;-37
2022/09/13 00:05:32;;;;;;;14.05;12.10;;;;;;;12.47;100.00;99670.55;1735957;82;21230;-37
2022/09/13 00:07:59;;;;;;;15.03;11.65;;;;;;;12.45;100.00;99661.98;1713672;82;20940;-38
2022/09/13 00:10:26;;;;;;;17.15;12.15;;;;;;;12.42;100.00;99665.99;1735887;82;20980;-37
2022/09/13 00:12:53;;;;;;;14.50;11.83;;;;;;;12.40;100.00;99663.47;1735830;82;20984;-37
2022/09/13 00:15:20;;;;;;;13.10;11.75;;;;;;;12.40;100.00;99660.88;1736051;82;20997;-37
2022/09/13 00:17:47;;;;;;;14.18;12.78;;;;;;;12.40;100.00;99659.58;1745038;81;21218;-37
2022/09/13 00:20:14;;;;;;;12.93;11.28;;;;;;;12.40;100.00;99655.69;1749893;82;20893;-37
2022/09/13 00:22:41;;;;;;;13.78;12.10;;;;;;;12.41;100.00;99657.37;1698613;82;20889;-37
2022/09/13 00:25:09;;;;;;;16.45;12.75;;;;;;;12.40;100.00;99662.17;1722584;82;21018;-37
2022/09/13 00:27:36;;;;;;;14.70;12.45;;;;;;;12.39;100.00;99654.00;1749810;81;21059;-37
2022/09/13 00:30:05;;;;;;;17.35;11.55;;;;;;;12.40;100.00;99662.61;1698274;82;21216;-37
2022/09/13 00:32:33;;;;;;;16.15;11.45;;;;;;;12.39;100.00;99651.41;1750022;82;21525;-37
2022/09/13 00:35:02;;;;;;;18.85;12.18;;;;;;;12.39;100.00;99658.33;1750176;82;20947;-37
2022/09/13 00:37:30;;;;;;;13.48;12.03;;;;;;;12.39;100.00;99654.44;1749880;82;21074;-37
2022/09/13 00:39:56;;;;;;;12.15;10.93;;;;;;;12.40;100.00;99658.28;1749904;82;20905;-37
2022/09/13 00:42:27;;;;;;;13.25;11.45;;;;;;;12.42;100.00;99659.50;1750017;82;20849;-37
2022/09/13 00:45:14;;;;;;;16.80;11.78;;;;;;;12.44;100.00;99664.18;1722375;82;21391;-37
2022/09/13 00:47:59;;;;;;;19.30;12.03;;;;;;;12.45;100.00;99658.08;1698863;82;21442;-38
2022/09/13 00:50:39;;;;;;;14.23;12.18;;;;;;;12.47;100.00;99662.33;1749966;82;21403;-37
2022/09/13 00:53:13;;;;;;;18.50;10.85;;;;;;;12.50;100.00;99663.94;1749911;82;20901;-37
2022/09/13 00:56:03;;;;;;;15.95;11.83;;;;;;;12.51;100.00;99660.47;1749815;82;21275;-38
2022/09/13 00:58:43;;;;;;;15.18;10.85;;;;;;;12.50;100.00;99659.60;1746986;82;20948;-38
2022/09/13 01:01:11;;;;;;;12.70;11.45;;;;;;;12.50;100.00;99657.01;1728975;82;20897;-37
2022/09/13 01:03:38;;;;;;;17.52;13.03;;;;;;;12.49;100.00;99655.76;1722202;82;20857;-37
2022/09/13 01:06:12;;;;;;;13.90;12.15;;;;;;;12.48;100.00;99655.37;1750030;82;21462;-37
2022/09/13 01:08:40;;;;;;;20.20;13.58;;;;;;;12.50;100.00;99660.91;1749308;82;21165;-38
2022/09/13 01:11:11;;;;;;;16.20;13.13;;;;;;;12.51;100.00;99663.06;1749834;82;20964;-37
2022/09/13 01:13:37;;;;;;;15.10;12.43;;;;;;;12.51;100.00;99657.87;1750073;82;20909;-37
2022/09/13 01:16:05;;;;;;;18.32;12.82;;;;;;;12.55;100.00;99658.14;1749754;82;20987;-37
2022/09/13 01:18:32;;;;;;;16.50;13.58;;;;;;;12.56;100.00;99660.26;1738120;81;21033;-37
2022/09/13 01:21:33;;;;;;;17.87;13.75;;;;;;;12.55;100.00;99656.84;1735933;82;21301;-37
2022/09/13 01:24:31;;;;;;;14.87;12.95;;;;;;;12.57;100.00;99655.02;1713057;82;20964;-38
2022/09/13 01:27:33;;;;;;;14.93;12.82;;;;;;;12.54;100.00;99655.15;1653956;84;21035;-37
2022/09/13 01:30:19;;;;;;;18.70;13.83;;;;;;;12.52;100.00;99654.37;1700536;84;21004;-38
2022/09/13 01:33:07;;;;;;;15.58;13.95;;;;;;;12.51;100.00;99652.67;1700979;84;21387;-38
2022/09/13 01:36:14;;;;;;;19.12;15.45;;;;;;;12.53;100.00;99650.00;1700868;84;21242;-37
2022/09/13 01:38:59;;;;;;;16.55;14.75;;;;;;;12.54;100.00;99645.20;1696054;83;20950;-37
2022/09/13 01:42:05;;;;;;;20.72;16.73;;;;;;;12.51;100.00;99647.48;1696035;84;20988;-37
2022/09/13 01:44:40;;;;;;;22.17;17.73;;;;;;;12.49;100.00;99640.19;1694808;84;21482;-37
2022/09/13 01:47:26;;;;;;;21.55;17.82;;;;;;;12.48;100.00;99642.39;1696059;84;20928;-38
2022/09/13 01:50:21;;;;;;;25.52;18.77;;;;;;;12.48;100.00;99642.39;1659205;84;21319;-37
2022/09/13 01:52:57;;;;;;;23.35;19.95;;;;;;;12.50;100.00;99644.03;1694641;84;20948;-38
2022/09/13 01:55:53;;;;;;;27.07;19.42;;;;;;;12.49;100.00;99638.88;1696106;83;20995;-37
2022/09/13 01:58:27;;;;;;;29.80;20.27;;;;;;;12.50;100.00;99635.38;1695513;84;20992;-37
2022/09/13 02:01:17;;;;;;;29.32;21.62;;;;;;;12.49;100.00;99630.66;1696267;84;21054;-38
2022/09/13 02:04:00;;;;;;;27.32;21.95;;;;;;;12.48;100.00;99629.41;1695847;83;21210;-38
2022/09/13 02:06:30;;;;;;;24.32;20.55;;;;;;;12.48;100.00;99632.00;1695803;84;21012;-38
2022/09/13 02:09:01;;;;;;;30.70;21.93;;;;;;;12.49;100.00;99633.69;1695789;84;21011;-38
2022/09/13 02:11:28;;;;;;;30.90;22.32;;;;;;;12.50;100.00;99631.48;1695911;84;21021;-37
2022/09/13 02:14:11;;;;;;;31.02;23.70;;;;;;;12.51;100.00;99631.91;1666616;84;20961;-37
2022/09/13 02:16:51;;;;;;;28.15;23.30;;;;;;;12.50;100.00;99636.23;1695734;84;21249;-37
2022/09/13 02:19:22;;;;;;;31.82;24.25;;;;;;;12.51;100.00;99631.91;1696041;84;21102;-37
2022/09/13 02:21:54;;;;;;;30.10;23.42;;;;;;;12.51;100.00;99633.20;1695856;84;20975;-37
2022/09/13 02:24:28;;;;;;;31.30;24.65;;;;;;;12.52;100.00;99636.20;1696213;84;21477;-37
2022/09/13 02:26:55;;;;;;;38.27;24.90;;;;;;;12.51;100.00;99628.02;1666058;84;21494;-38
2022/09/13 02:29:23;;;;;;;33.70;26.00;;;;;;;12.53;100.00;99625.34;1643958;84;21151;-37
2022/09/13 02:31:59;;;;;;;35.10;25.77;;;;;;;12.55;100.00;99624.83;1665848;84;20928;-37
2022/09/13 02:34:37;;;;;;;34.63;26.48;;;;;;;12.55;100.00;99621.79;1695895;84;20925;-37
2022/09/13 02:37:05;;;;;;;38.10;29.30;;;;;;;12.54;100.00;99616.64;1666808;84;21055;-38
2022/09/13 02:39:32;;;;;;;38.60;28.47;;;;;;;12.56;100.00;99620.02;1695947;84;21461;-38
2022/09/13 02:42:19;;;;;;;38.73;27.60;;;;;;;12.55;100.00;99614.00;1695976;84;21216;-37
2022/09/13 02:44:52;;;;;;;38.98;27.42;;;;;;;12.57;100.00;99615.22;1695256;84;21550;-37
2022/09/13 02:47:55;;;;;;;34.92;27.48;;;;;;;12.55;100.00;99611.84;1695476;84;20968;-37
2022/09/13 02:50:52;;;;;;;35.85;25.17;;;;;;;12.54;100.00;99612.75;1666528;84;20995;-38
2022/09/13 02:53:32;;;;;;;37.42;25.55;;;;;;;12.54;100.00;99608.86;1695921;83;21015;-37
2022/09/13 02:56:25;;;;;;;31.37;24.72;;;;;;;12.51;100.00;99608.55;1695873;84;21225;-37
2022/09/13 02:58:57;;;;;;;37.38;26.23;;;;;;;12.50;100.00;99608.98;1665922;84;20999;-38
2022/09/13 03:01:24;;;;;;;34.18;26.05;;;;;;;12.51;100.00;99605.95;1695593;84;20983;-37
2022/09/13 03:03:53;;;;;;;35.98;25.52;;;;;;;12.51;100.00;99611.14;1695728;84;21017;-37
2022/09/13 03:06:24;;;;;;;35.00;26.17;;;;;;;12.52;100.00;99607.64;1695827;83;20960;-38
2022/09/13 03:08:53;;;;;;;38.60;26.30;;;;;;;12.52;100.00;99598.55;1695799;84;21167;-37
2022/09/13 03:12:03;;;;;;;37.00;24.72;;;;;;;12.52;100.00;99595.96;1696132;84;20909;-37
2022/09/13 03:15:06;;;;;;;33.78;23.67;;;;;;;12.54;100.00;99588.95;1665502;84;20980;-38
2022/09/13 03:17:58;;;;;;;28.02;22.95;;;;;;;12.55;100.00;99587.19;1699329;83;20973;-37
2022/09/13 03:20:50;;;;;;;31.87;23.35;;;;;;;12.55;100.00;99586.75;1716456;83;21532;-38
2022/09/13 03:23:54;;;;;;;34.00;22.60;;;;;;;12.57;100.00;99586.23;1716943;83;21154;-38
2022/09/13 03:26:32;;;;;;;34.98;24.40;;;;;;;12.58;100.00;99587.06;1716940;83;21445;-37
2022/09/13 03:29:47;;;;;;;41.85;24.15;;;;;;;12.56;100.00;99583.68;1716731;83;21022;-38
2022/09/13 03:32:50;;;;;;;36.45;24.63;;;;;;;12.55;100.00;99583.30;1721540;82;20991;-38
2022/09/13 03:35:35;;;;;;;39.85;26.27;;;;;;;12.55;100.00;99585.89;1721606;83;20896;-38
2022/09/13 03:38:22;;;;;;;38.85;24.57;;;;;;;12.50;100.00;99585.62;1721610;83;21258;-38
2022/09/13 03:41:05;;;;;;;44.93;27.32;;;;;;;12.49;100.00;99584.38;1721829;83;20983;-38
2022/09/13 03:43:49;;;;;;;42.83;29.23;;;;;;;12.48;100.00;99582.25;1695141;83;21512;-38
2022/09/13 03:46:38;;;;;;;38.13;27.73;;;;;;;12.48;100.00;99578.36;1721674;83;21014;-38
2022/09/13 03:49:12;;;;;;;41.70;27.40;;;;;;;12.48;100.00;99580.09;1721642;83;20983;-38
2022/09/13 03:51:39;;;;;;;41.98;27.80;;;;;;;12.49;100.00;99572.26;1721946;82;21205;-38
2022/09/13 03:54:13;;;;;;;42.55;26.40;;;;;;;12.52;100.00;99574.34;1721542;83;20955;-38
2022/09/13 03:56:39;;;;;;;40.90;25.72;;;;;;;12.53;100.00;99575.59;1695074;83;20962;-38
2022/09/13 03:59:07;;;;;;;46.50;27.05;;;;;;;12.56;100.00;99578.05;1721534;82;21453;-38
2022/09/13 04:01:33;;;;;;;39.38;25.27;;;;;;;12.58;100.00;99576.23;1694836;83;20955;-38
2022/09/13 04:04:01;;;;;;;45.08;25.43;;;;;;;12.62;100.00;99566.55;1721689;83;21187;-38
2022/09/13 04:06:28;;;;;;;41.37;24.77;;;;;;;12.65;100.00;99572.47;1666893;84;20896;-38
2022/09/13 04:08:55;;;;;;;35.28;22.82;;;;;;;12.69;100.00;99571.05;1721731;83;20944;-38
2022/09/13 04:11:22;;;;;;;35.38;22.67;;;;;;;12.73;100.00;99572.16;1721663;82;21469;-38
2022/09/13 04:13:49;;;;;;;39.40;23.57;;;;;;;12.74;100.00;99562.60;1721744;83;20996;-38
2022/09/13 04:16:16;;;;;;;38.42;22.90;;;;;;;12.77;100.00;99570.30;1721620;83;21156;-38
2022/09/13 04:18:43;;;;;;;42.60;25.57;;;;;;;12.80;100.00;99568.86;1711087;83;20996;-38
2022/09/13 04:21:09;;;;;;;38.33;23.70;;;;;;;12.82;100.00;99566.19;1700769;84;21050;-38
2022/09/13 04:23:37;;;;;;;37.35;23.85;;;;;;;12.87;100.00;99565.09;1666164;84;20983;-38
2022/09/13 04:26:05;;;;;;;40.15;21.50;;;;;;;12.90;100.00;99564.13;1695966;84;20960;-38
2022/09/13 04:28:31;;;;;;;46.10;26.23;;;;;;;12.92;100.00;99568.33;1695827;84;21857;-38
2022/09/13 04:30:59;;;;;;;50.55;28.85;;;;;;;12.91;100.00;99569.24;1666551;84;20976;-38
2022/09/13 04:33:26;;;;;;;49.48;28.27;;;;;;;12.91;100.00;99566.64;1695763;83;20936;-38
2022/09/13 04:35:58;;;;;;;50.38;29.50;;;;;;;12.93;100.00;99568.72;1695878;84;20969;-38
2022/09/13 04:38:27;;;;;;;53.02;29.75;;;;;;;12.92;100.00;99563.61;1666508;84;21458;-38
2022/09/13 04:40:54;;;;;;;54.27;29.95;;;;;;;12.90;100.00;99566.25;1696040;84;21086;-38
2022/09/13 04:43:22;;;;;;;57.95;32.98;;;;;;;12.89;100.00;99569.77;1695721;83;21068;-38
2022/09/13 04:45:49;;;;;;;59.75;32.58;;;;;;;12.88;100.00;99569.38;1695983;83;20980;-38
2022/09/13 04:48:16;;;;;;;62.85;31.25;;;;;;;12.88;100.00;99564.18;1695987;84;20956;-38
2022/09/13 04:50:43;;;;;;;47.75;29.67;;;;;;;12.90;100.00;99567.55;1696215;84;21589;-38
2022/09/13 04:53:10;;;;;;;52.65;30.30;;;;;;;12.89;100.00;99567.64;1695910;84;21124;-38
2022/09/13 04:55:37;;;;;;;49.70;30.35;;;;;;;12.86;100.00;99562.55;1695698;84;20960;-38
2022/09/13 04:58:04;;;;;;;56.58;27.98;;;;;;;12.86;100.00;99567.73;1695931;84;21553;-38
2022/09/13 05:00:32;;;;;;;53.25;29.77;;;;;;;12.87;100.00;99565.53;1695949;84;21029;-38
2022/09/13 05:03:00;;;;;;;49.45;28.45;;;;;;;12.87;100.00;99565.09;1695925;84;21051;-38
2022/09/13 05:05:28;;;;;;;53.90;32.33;;;;;;;12.85;100.00;99566.91;1695773;83;21189;-38
2022/09/13 05:07:56;;;;;;;55.45;30.82;;;;;;;12.87;100.00;99566.39;1696121;84;20944;-38
2022/09/13 05:10:23;;;;;;;50.75;29.55;;;;;;;12.89;100.00;99563.73;1665964;84;21066;-38
2022/09/13 05:12:51;;;;;;;44.70;29.50;;;;;;;12.89;100.00;99564.57;1695917;84;21521;-38
2022/09/13 05:15:18;;;;;;;45.15;27.95;;;;;;;12.86;100.00;99562.11;1695997;84;21012;-38
2022/09/13 05:17:45;;;;;;;48.98;30.15;;;;;;;12.87;100.00;99564.23;1695740;84;21076;-38
2022/09/13 05:20:12;;;;;;;53.30;30.90;;;;;;;12.88;100.00;99564.62;1695899;84;20953;-38
2022/09/13 05:22:38;;;;;;;46.92;31.50;;;;;;;12.91;100.00;99563.22;1666285;84;21545;-38
2022/09/13 05:25:07;;;;;;;47.73;29.32;;;;;;;12.94;100.00;99562.61;1695821;84;20929;-38
2022/09/13 05:27:34;;;;;;;51.20;34.15;;;;;;;12.98;100.00;99567.67;1666249;84;21063;-38
2022/09/13 05:30:04;;;;;;;53.20;33.90;;;;;;;13.00;100.00;99570.61;1695895;84;20995;-38
2022/09/13 05:32:31;;;;;;;70.37;40.88;;;;;;;13.00;100.00;99566.71;1696127;84;21004;-38
2022/09/13 05:34:58;;;;;;;62.45;40.88;;;;;;;13.00;100.00;99570.61;1695805;84;21016;-38
2022/09/13 05:37:24;;;;;;;60.67;39.10;;;;;;;12.99;100.00;99565.47;1696031;84;21624;-38
2022/09/13 05:39:51;;;;;;;57.08;36.55;;;;;;;13.02;100.00;99570.09;1696012;83;21008;-38
2022/09/13 05:42:18;;;;;;;58.87;36.75;;;;;;;13.07;100.00;99568.60;1695906;84;22140;-38
2022/09/13 05:44:45;;;;;;;51.13;35.73;;;;;;;13.08;100.00;99571.11;1665927;84;21080;-38
2022/09/13 05:47:13;;;;;;;51.50;34.15;;;;;;;13.12;100.00;99567.08;1695904;84;21008;-38
2022/09/13 05:49:40;;;;;;;49.33;33.40;;;;;;;13.14;100.00;99575.22;1695624;83;20932;-38
2022/09/13 05:52:06;;;;;;;52.17;35.00;;;;;;;13.16;100.00;99579.06;1695905;84;21046;-38
2022/09/13 05:54:33;;;;;;;48.78;34.83;;;;;;;13.16;100.00;99573.39;1695977;84;21131;-38
2022/09/13 05:57:00;;;;;;;46.45;32.48;;;;;;;13.18;100.00;99585.86;1695726;84;21597;-38
2022/09/13 05:59:26;;;;;;;50.23;33.83;;;;;;;13.23;100.00;99586.50;1695775;83;21012;-38
2022/09/13 06:01:54;;;;;;;52.00;30.48;;;;;;;13.28;100.00;99582.88;1695914;84;20904;-38
2022/09/13 06:04:20;;;;;;;44.98;31.97;;;;;;;13.29;100.00;99580.20;1695881;84;21079;-38
2022/09/13 06:06:49;;;;;;;46.80;32.20;;;;;;;13.32;100.00;99579.23;1695841;83;21053;-38
2022/09/13 06:09:15;;;;;;;46.98;31.23;;;;;;;13.37;100.00;99575.50;1695658;83;20928;-38
2022/09/13 06:11:42;;;;;;;43.85;30.45;;;;;;;13.43;100.00;99581.39;1695932;83;20968;-38
2022/09/13 06:14:10;;;;;;;46.90;32.45;;;;;;;13.48;100.00;99578.12;1695814;83;20968;-38
2022/09/13 06:16:37;;;;;;;50.28;31.62;;;;;;;13.52;100.00;99577.08;1666303;84;20944;-38
2022/09/13 06:19:04;;;;;;;46.23;32.58;;;;;;;13.57;100.00;99577.70;1695959;83;21108;-38
2022/09/13 06:21:32;;;;;;;45.05;32.33;;;;;;;13.64;100.00;99589.54;1695570;84;20916;-38
2022/09/13 06:23:58;;;;;;;53.87;32.65;;;;;;;13.73;100.00;99590.03;1696096;84;21552;-38
2022/09/13 06:26:27;;;;;;;46.90;33.02;;;;;;;13.78;100.00;99590.22;1695788;84;21019;-38
2022/09/13 06:28:56;;;;;;;47.48;32.50;;;;;;;13.86;100.00;99592.44;1695825;84;20885;-38
2022/09/13 06:31:25;;;;;;;53.30;31.82;;;;;;;13.93;100.00;99591.27;1695692;83;21404;-38
2022/09/13 06:33:58;;;;;;;48.80;32.35;;;;;;;13.94;100.00;99589.05;1695781;84;20941;-38
2022/09/13 06:36:25;;;;;;;44.83;31.07;;;;;;;13.96;100.00;99593.34;1695959;84;21031;-37
2022/09/13 06:38:52;;;;;;;45.85;29.27;;;;;;;14.00;100.00;99597.00;1695969;84;21074;-37
2022/09/13 06:41:22;;;;;;;34.85;23.45;;;;;;;14.02;100.00;99596.50;1695842;84;20964;-37
2022/09/13 06:43:55;;;;;;;28.30;21.02;;;;;;;14.00;100.00;99598.78;1695808;84;21155;-37
2022/09/13 06:46:22;;;;;;;36.55;21.45;;;;;;;13.94;100.00;99598.59;1696238;84;20928;-37
2022/09/13 06:48:48;;;;;;;30.43;21.50;;;;;;;13.90;100.00;99600.95;1695756;83;21000;-38
2022/09/13 06:51:18;;;;;;;24.85;18.05;;;;;;;13.81;100.00;99600.09;1695763;84;20993;-38
2022/09/13 06:53:46;;;;;;;23.75;19.73;;;;;;;13.75;100.00;99602.50;1696032;84;20991;-38
2022/09/13 06:56:19;;;;;;;25.90;18.90;;;;;;;13.67;100.00;99602.02;1695977;84;22391;-38
2022/09/13 06:58:47;;;;;;;26.68;18.62;;;;;;;13.60;100.00;99606.64;1695430;84;20995;-37
2022/09/13 07:01:21;;;;;;;28.40;17.60;;;;;;;13.54;100.00;99599.95;1696055;84;20964;-38
2022/09/13 07:03:56;;;;;;;28.02;19.12;;;;;;;13.49;100.00;99599.31;1695792;83;20964;-38
2022/09/13 07:06:29;;;;;;;31.33;21.17;;;;;;;13.40;100.00;99599.70;1666346;84;20964;-39
2022/09/13 07:08:55;;;;;;;30.92;20.77;;;;;;;13.35;100.00;99604.61;1695504;83;21027;-37
2022/09/13 07:11:23;;;;;;;32.30;21.37;;;;;;;13.33;100.00;99606.91;1696043;84;20940;-38
2022/09/13 07:13:54;;;;;;;35.45;22.05;;;;;;;13.33;100.00;99607.73;1695968;83;20937;-38
2022/09/13 07:16:23;;;;;;;26.40;18.52;;;;;;;13.31;100.00;99606.96;1665268;84;20944;-37
2022/09/13 07:18:59;;;;;;;33.08;19.67;;;;;;;13.32;100.00;99600.02;1695941;83;21024;-37
2022/09/13 07:21:27;;;;;;;34.33;20.00;;;;;;;13.26;100.00;99601.12;1694848;84;21198;-37
2022/09/13 07:23:54;;;;;;;28.92;18.27;;;;;;;13.23;100.00;99607.76;1695799;84;21071;-38
2022/09/13 07:26:21;;;;;;;26.25;18.48;;;;;;;13.27;100.00;99604.11;1695634;84;20944;-38
2022/09/13 07:28:51;;;;;;;28.23;17.25;;;;;;;13.29;100.00;99602.76;1695840;83;20968;-39
2022/09/13 07:31:24;;;;;;;29.02;17.10;;;;;;;13.36;100.00;99605.47;1696303;84;21529;-39
2022/09/13 07:35:06;;;;;;;26.80;16.30;;;;;;;13.50;100.00;99600.52;1798215;79;23318;-38
2022/09/13 07:37:34;;;;;;;34.45;16.55;;;;;;;13.52;100.00;99600.47;1758068;81;20837;-37
2022/09/13 07:40:02;;;;;;;19.85;14.85;;;;;;;13.56;100.00;99601.19;1757997;81;22091;-37
2022/09/13 07:42:29;;;;;;;23.55;14.70;;;;;;;13.54;100.00;99605.62;1757807;81;20971;-37
2022/09/13 07:44:55;;;;;;;26.00;15.58;;;;;;;13.48;100.00;99607.55;1757975;81;20885;-37
2022/09/13 07:47:22;;;;;;;25.17;15.85;;;;;;;13.46;100.00;99604.65;1758315;81;20976;-37
2022/09/13 07:49:49;;;;;;;20.12;14.23;;;;;;;13.45;100.00;99603.79;1758051;81;21065;-37
2022/09/13 07:52:16;;;;;;;18.30;11.50;;;;;;;13.41;100.00;99601.38;1757909;80;21047;-38
2022/09/13 07:54:42;;;;;;;11.35;10.13;;;;;;;13.39;100.00;99606.63;1757925;81;20983;-37
2022/09/13 07:57:09;;;;;;;5.53;5.03;;;;;;;13.36;100.00;99613.27;1757905;81;20980;-37
2022/09/13 07:59:37;;;;;;;4.12;3.75;;;;;;;13.31;100.00;99611.33;1749737;82;20932;-38
2022/09/13 08:02:04;;;;;;;4.37;3.75;;;;;;;13.25;100.00;99612.87;1749681;82;20979;-37
2022/09/13 08:04:31;;;;;;;4.00;3.70;;;;;;;13.15;100.00;99609.38;1749726;81;21200;-38
2022/09/13 08:06:59;;;;;;;3.55;3.35;;;;;;;13.13;100.00;99617.70;1749682;82;20956;-38
2022/09/13 08:09:26;;;;;;;3.83;3.62;;;;;;;13.10;100.00;99610.03;1749797;82;20928;-37
2022/09/13 08:11:53;;;;;;;3.25;2.95;;;;;;;13.10;100.00;99616.53;1749714;82;20952;-38
2022/09/13 08:14:22;;;;;;;2.95;2.75;;;;;;;13.12;100.00;99608.21;1749659;82;20889;-37
2022/09/13 08:16:48;;;;;;;2.83;2.72;;;;;;;13.13;100.00;99610.34;1749952;81;21003;-38
2022/09/13 08:19:17;;;;;;;2.65;2.55;;;;;;;13.07;100.00;99611.47;1749671;81;20949;-38
2022/09/13 08:21:44;;;;;;;4.22;2.70;;;;;;;13.08;100.00;99612.69;1749727;82;20964;-38
2022/09/13 08:24:14;;;;;;;4.20;2.75;;;;;;;13.11;100.00;99609.56;1749602;82;20952;-38
2022/09/13 08:26:41;;;;;;;2.08;1.98;;;;;;;13.16;100.00;99614.13;1749662;82;21058;-38
2022/09/13 08:29:09;;;;;;;2.83;2.62;;;;;;;13.21;100.00;99614.78;1749672;81;21054;-38
2022/09/13 08:31:36;;;;;;;3.77;2.52;;;;;;;13.23;100.00;99607.28;1749723;82;20983;-38
2022/09/13 08:34:03;;;;;;;5.22;2.80;;;;;;;13.29;100.00;99606.66;1743744;81;20952;-38
2022/09/13 08:36:30;;;;;;;2.50;2.40;;;;;;;13.32;100.00;99609.12;1736390;82;20917;-38
2022/09/13 08:38:59;;;;;;;2.50;2.30;;;;;;;13.35;100.00;99606.38;1736485;81;20901;-37
2022/09/13 08:41:46;;;;;;;2.67;2.47;;;;;;;13.38;100.00;99598.45;1736520;82;21245;-38
2022/09/13 08:44:28;;;;;;;2.65;2.45;;;;;;;13.39;100.00;99606.63;1736240;82;21047;-38
2022/09/13 08:47:28;;;;;;;2.50;2.40;;;;;;;13.39;100.00;99609.23;1735998;82;20980;-38
2022/09/13 08:50:09;;;;;;;2.40;2.20;;;;;;;13.48;100.00;99605.42;1735825;82;21620;-38
2022/09/13 08:53:19;;;;;;;2.45;2.25;;;;;;;13.55;100.00;99612.03;1725436;82;21400;-38
2022/09/13 08:56:12;;;;;;;2.85;2.65;;;;;;;13.62;100.00;99616.04;1736010;82;21145;-38
2022/09/13 08:59:27;;;;;;;4.83;2.10;;;;;;;13.77;100.00;99612.37;1735793;81;20984;-39
2022/09/13 09:02:11;;;;;;;2.67;2.58;;;;;;;13.88;100.00;99620.52;1721030;82;20949;-37
2022/09/13 09:04:45;;;;;;;3.30;3.10;;;;;;;13.81;100.00;99620.89;1732552;82;20952;-38
2022/09/13 09:07:29;;;;;;;3.30;3.10;;;;;;;13.63;100.00;99623.40;1736259;82;20940;-37
2022/09/13 09:10:13;;;;;;;3.40;3.08;;;;;;;13.49;100.00;99622.23;1736129;82;21234;-38
2022/09/13 09:12:57;;;;;;;3.30;3.10;;;;;;;13.41;100.00;99626.91;1736068;82;20925;-38
2022/09/13 09:15:38;;;;;;;3.22;2.50;;;;;;;13.40;100.00;99619.19;1735925;82;20984;-39
2022/09/13 09:18:22;;;;;;;3.17;2.98;;;;;;;13.38;100.00;99623.14;1735983;82;20933;-38
2022/09/13 09:20:52;;;;;;;3.12;2.80;;;;;;;13.33;100.00;99624.62;1735960;82;20928;-38
2022/09/13 09:23:26;;;;;;;5.00;2.95;;;;;;;13.30;100.00;99621.34;1735794;82;21013;-38
2022/09/13 09:26:17;;;;;;;3.55;3.17;;;;;;;13.23;100.00;99625.48;1715584;82;21003;-38
2022/09/13 09:29:02;;;;;;;3.85;2.90;;;;;;;13.22;100.00;99625.56;1735792;82;20893;-38
2022/09/13 09:32:13;;;;;;;3.80;3.50;;;;;;;13.16;100.00;99629.73;1735807;81;20968;-38
2022/09/13 09:35:31;;;;;;;3.52;3.33;;;;;;;13.11;100.00;99631.65;1743780;81;20940;-40
2022/09/13 09:38:27;;;;;;;3.98;3.67;;;;;;;13.10;100.00;99622.16;1723653;82;21085;-38
2022/09/13 09:40:54;;;;;;;3.87;3.58;;;;;;;13.16;100.00;99627.95;1720873;83;21003;-38
2022/09/13 09:43:28;;;;;;;3.30;3.00;;;;;;;13.16;100.00;99629.25;1737647;82;20916;-38
2022/09/13 09:45:55;;;;;;;3.37;3.17;;;;;;;13.19;100.00;99630.89;1750035;81;21439;-39
2022/09/13 09:48:25;;;;;;;10.88;3.87;;;;;;;13.20;100.00;99632.11;1749917;81;20849;-38
2022/09/13 09:50:57;;;;;;;3.52;3.33;;;;;;;13.21;100.00;99632.50;1750141;82;21083;-39
2022/09/13 09:53:30;;;;;;;5.28;4.25;;;;;;;13.21;100.00;99636.86;1749796;82;21058;-41
2022/09/13 09:56:21;;;;;;;6.53;4.25;;;;;;;13.21;100.00;99638.99;1750195;82;21392;-38
2022/09/13 09:58:48;;;;;;;4.92;4.42;;;;;;;13.15;100.00;99637.96;1749762;81;20964;-38
2022/09/13 10:01:31;;;;;;;5.50;5.00;;;;;;;13.08;100.00;99635.23;1749879;82;20976;-39
2022/09/13 10:04:11;;;;;;;5.20;4.72;;;;;;;13.05;100.00;99636.67;1749421;82;21168;-39
2022/09/13 10:06:39;;;;;;;5.62;4.83;;;;;;;13.04;100.00;99645.38;1749690;82;20964;-39
2022/09/13 10:09:15;;;;;;;5.70;5.20;;;;;;;12.98;100.00;99645.61;1749954;82;20897;-39
2022/09/13 10:11:50;;;;;;;5.87;4.60;;;;;;;12.94;100.00;99644.91;1749875;81;21525;-37
2022/09/13 10:14:37;;;;;;;4.92;4.53;;;;;;;12.92;100.00;99654.05;1749948;82;20988;-37
2022/09/13 10:17:25;;;;;;;7.30;5.70;;;;;;;12.89;100.00;99655.95;1750079;81;21072;-38
2022/09/13 10:20:00;;;;;;;6.50;4.83;;;;;;;12.84;100.00;99650.92;1749845;82;20873;-38
2022/09/13 10:22:31;;;;;;;5.62;5.08;;;;;;;12.82;100.00;99651.45;1749732;81;20845;-38
2022/09/13 10:25:30;;;;;;;5.87;5.37;;;;;;;12.83;100.00;99655.73;1749800;82;21002;-39
2022/09/13 10:27:58;;;;;;;5.42;5.03;;;;;;;12.82;100.00;99654.05;1749890;82;20948;-38
2022/09/13 10:30:53;;;;;;;7.25;5.85;;;;;;;12.75;100.00;99650.84;1749850;82;21245;-37
2022/09/13 10:33:34;;;;;;;4.85;4.45;;;;;;;12.74;100.00;99650.89;1749872;82;20921;-38
2022/09/13 10:36:20;;;;;;;5.85;5.35;;;;;;;12.73;100.00;99649.20;1741413;81;20944;-37
2022/09/13 10:38:57;;;;;;;5.87;5.20;;;;;;;12.76;100.00;99651.23;1746605;81;21503;-38
2022/09/13 10:41:26;;;;;;;6.47;5.40;;;;;;;12.76;100.00;99651.23;1746200;82;20885;-38
2022/09/13 10:43:57;;;;;;;5.70;5.20;;;;;;;12.80;100.00;99648.06;1746318;81;21559;-38
2022/09/13 10:46:24;;;;;;;5.92;5.45;;;;;;;12.82;100.00;99647.98;1746037;82;20917;-39
2022/09/13 10:48:54;;;;;;;7.00;6.25;;;;;;;12.85;100.00;99651.31;1746114;82;21466;-38
2022/09/13 10:51:30;;;;;;;6.70;6.10;;;;;;;12.88;100.00;99656.38;1746067;81;20963;-38
2022/09/13 10:54:22;;;;;;;6.75;6.08;;;;;;;12.80;100.00;99648.06;1746135;81;20845;-38
2022/09/13 10:56:49;;;;;;;7.17;6.58;;;;;;;12.76;100.00;99649.11;1717880;82;21171;-37
2022/09/13 10:59:29;;;;;;;7.35;6.53;;;;;;;12.74;100.00;99649.16;1717017;82;21438;-37
2022/09/13 11:02:04;;;;;;;7.33;6.62;;;;;;;12.84;100.00;99656.56;1746082;82;20933;-37
2022/09/13 11:04:59;;;;;;;8.60;7.15;;;;;;;12.93;100.00;99650.54;1745743;82;20901;-38
2022/09/13 11:07:46;;;;;;;8.05;6.67;;;;;;;13.00;100.00;99654.17;1746224;82;20905;-38
2022/09/13 11:10:24;;;;;;;8.30;7.15;;;;;;;13.01;100.00;99648.07;1745952;81;21284;-38
2022/09/13 11:13:08;;;;;;;7.97;6.97;;;;;;;13.08;100.00;99646.93;1746002;81;20936;-37
2022/09/13 11:16:02;;;;;;;8.13;6.90;;;;;;;13.17;100.00;99650.91;1741714;82;20987;-38
2022/09/13 11:19:07;;;;;;;9.28;7.47;;;;;;;13.23;100.00;99648.03;1741551;82;20929;-38
2022/09/13 11:21:42;;;;;;;8.75;7.55;;;;;;;13.34;100.00;99653.61;1746198;82;20936;-37
2022/09/13 11:24:38;;;;;;;9.33;6.57;;;;;;;13.40;100.00;99657.70;1746162;82;21094;-38
2022/09/13 11:27:18;;;;;;;9.20;6.70;;;;;;;13.37;100.00;99652.64;1745987;82;21244;-38
2022/09/13 11:30:15;;;;;;;6.10;5.53;;;;;;;13.36;100.00;99656.16;1743592;82;20892;-39
2022/09/13 11:33:16;;;;;;;8.45;6.30;;;;;;;13.34;100.00;99658.81;1746035;82;20929;-37
2022/09/13 11:36:08;;;;;;;7.60;5.95;;;;;;;13.33;100.00;99659.72;1748744;81;20976;-37
2022/09/13 11:38:55;;;;;;;7.60;6.03;;;;;;;13.36;100.00;99664.78;1749861;82;21063;-37
2022/09/13 11:41:30;;;;;;;7.65;5.47;;;;;;;13.37;100.00;99658.67;1749621;81;20936;-36
2022/09/13 11:44:37;;;;;;;5.50;5.00;;;;;;;13.37;100.00;99661.74;1750030;81;20944;-36
2022/09/13 11:47:40;;;;;;;10.53;6.20;;;;;;;13.33;100.00;99659.72;1749810;81;21004;-37
2022/09/13 11:50:38;;;;;;;8.18;5.53;;;;;;;13.37;100.00;99665.64;1749967;81;21474;-37
2022/09/13 11:53:28;;;;;;;5.28;4.78;;;;;;;13.42;100.00;99665.45;1749922;81;21318;-37